aviador You're here:

KGLD Decoded Metar

GOODLAND in KS, USA
Report Time2017-09-21 20:53:00
UTC Time2017-09-21 21:23:08
Flight Rules vfr VFR
Wind180° at 17 Gusting to 27 kt
W.Decomp.*RWY 17: 17.0 kt HW 0.3 kt RCW
RWY 12: 10.7 kt HW 13.2 kt RCW
RWY 23: 8.8 kt HW 14.6 kt LCW
W.Rank180° ranks 1
Current wind is above 180° avg. (12.3)
Visibility9999 m
Phenomena:N/A
Clouds:N/A
Expected CloudBase > 12,800 ft AGL from Temp-Dew spread
CeilingNone
Temp34°C (ISA +26)
Dew Point02°C (13% RH)
Heat Index31.5°C
AAT26.2°C
QNH1005 hPa
Density Alt6,969 ft
Elevation3,652 ft
Report Wrong Elevation
Raw Report
KGLD 212053Z AUTO 18017G27KT 10SM CLR 34/02 A2968 RMK AO2 PK WND
18030/2024 SLP006 T03440017 58020=

Extra information for KGLD:More info

Metar Taf Metar & Taf Last 4 Metars F.Rules Stats Wind Profile Meteogram Temp Stats Airport Information Weather charts Add Link Nearby VenuesMetar ALERT Operation Metar Decoded Social comments

AIRNAV info for KGLD